sensor_id;sensor_type;location;lat;lon;timestamp;temperature;humidity
52513;DHT22;38422;53.172;6.974;2023-03-30T00:01:02;10.80;99.90
52513;DHT22;38422;53.172;6.974;2023-03-30T00:03:28;10.80;99.90
52513;DHT22;38422;53.172;6.974;2023-03-30T00:05:55;10.80;99.90
52513;DHT22;38422;53.172;6.974;2023-03-30T00:08:25;10.90;99.90
52513;DHT22;38422;53.172;6.974;2023-03-30T00:10:59;10.80;99.90
52513;DHT22;38422;53.172;6.974;2023-03-30T00:13:28;10.90;99.90
52513;DHT22;38422;53.172;6.974;2023-03-30T00:15:54;10.90;99.90
52513;DHT22;38422;53.172;6.974;2023-03-30T00:18:20;10.90;99.90
52513;DHT22;38422;53.172;6.974;2023-03-30T00:20:50;10.90;99.90
52513;DHT22;38422;53.172;6.974;2023-03-30T00:23:16;10.90;99.90
52513;DHT22;38422;53.172;6.974;2023-03-30T00:25:43;10.90;99.90
52513;DHT22;38422;53.172;6.974;2023-03-30T00:28:08;10.90;99.90
52513;DHT22;38422;53.172;6.974;2023-03-30T00:30:34;10.90;99.90
52513;DHT22;38422;53.172;6.974;2023-03-30T00:33:02;10.90;99.90
52513;DHT22;38422;53.172;6.974;2023-03-30T00:35:28;10.90;99.90
52513;DHT22;38422;53.172;6.974;2023-03-30T00:37:58;10.90;99.90
52513;DHT22;38422;53.172;6.974;2023-03-30T00:40:29;10.90;99.90
52513;DHT22;38422;53.172;6.974;2023-03-30T00:42:59;10.90;99.90
52513;DHT22;38422;53.172;6.974;2023-03-30T00:45:28;10.90;99.90
52513;DHT22;38422;53.172;6.974;2023-03-30T00:48:07;10.90;99.90
52513;DHT22;38422;53.172;6.974;2023-03-30T00:50:39;10.90;99.90
52513;DHT22;38422;53.172;6.974;2023-03-30T00:53:14;10.90;99.90
52513;DHT22;38422;53.172;6.974;2023-03-30T00:55:43;10.90;99.90
52513;DHT22;38422;53.172;6.974;2023-03-30T00:58:10;10.90;99.90
52513;DHT22;38422;53.172;6.974;2023-03-30T01:00:37;10.90;99.90
52513;DHT22;38422;53.172;6.974;2023-03-30T01:03:48;10.90;99.90
52513;DHT22;38422;53.172;6.974;2023-03-30T01:05:56;10.90;99.90
52513;DHT22;38422;53.172;6.974;2023-03-30T01:08:24;10.90;99.90
52513;DHT22;38422;53.172;6.974;2023-03-30T01:10:57;10.90;99.90
52513;DHT22;38422;53.172;6.974;2023-03-30T01:13:29;10.90;99.90
52513;DHT22;38422;53.172;6.974;2023-03-30T01:29:52;10.90;99.90
52513;DHT22;38422;53.172;6.974;2023-03-30T01:32:28;10.90;99.90
52513;DHT22;38422;53.172;6.974;2023-03-30T01:38:14;10.90;99.90
52513;DHT22;38422;53.172;6.974;2023-03-30T01:41:11;10.90;99.90
52513;DHT22;38422;53.172;6.974;2023-03-30T01:43:56;10.90;99.90
52513;DHT22;38422;53.172;6.974;2023-03-30T01:46:35;10.90;99.90
52513;DHT22;38422;53.172;6.974;2023-03-30T01:54:43;10.90;99.90
52513;DHT22;38422;53.172;6.974;2023-03-30T01:57:17;10.90;99.90
52513;DHT22;38422;53.172;6.974;2023-03-30T01:59:54;10.90;99.90
52513;DHT22;38422;53.172;6.974;2023-03-30T02:02:29;10.90;99.90
52513;DHT22;38422;53.172;6.974;2023-03-30T02:04:57;10.90;99.90
52513;DHT22;38422;53.172;6.974;2023-03-30T02:07:28;10.90;99.90
52513;DHT22;38422;53.172;6.974;2023-03-30T02:09:58;10.90;99.90
52513;DHT22;38422;53.172;6.974;2023-03-30T02:12:26;10.90;99.90
52513;DHT22;38422;53.172;6.974;2023-03-30T02:15:00;11.00;99.90
52513;DHT22;38422;53.172;6.974;2023-03-30T02:17:28;11.00;99.90
52513;DHT22;38422;53.172;6.974;2023-03-30T02:19:55;11.00;99.90
52513;DHT22;38422;53.172;6.974;2023-03-30T02:22:23;11.00;99.90
52513;DHT22;38422;53.172;6.974;2023-03-30T02:24:53;11.00;99.90
52513;DHT22;38422;53.172;6.974;2023-03-30T02:27:21;11.10;99.90
52513;DHT22;38422;53.172;6.974;2023-03-30T02:29:47;11.10;99.90
52513;DHT22;38422;53.172;6.974;2023-03-30T02:32:20;11.10;99.90
52513;DHT22;38422;53.172;6.974;2023-03-30T02:35:09;11.10;99.90
52513;DHT22;38422;53.172;6.974;2023-03-30T02:40:45;11.10;99.90
52513;DHT22;38422;53.172;6.974;2023-03-30T02:49:27;11.20;99.90
52513;DHT22;38422;53.172;6.974;2023-03-30T02:54:46;11.10;99.90
52513;DHT22;38422;53.172;6.974;2023-03-30T03:00:10;11.20;99.90
52513;DHT22;38422;53.172;6.974;2023-03-30T03:02:59;11.20;99.90
52513;DHT22;38422;53.172;6.974;2023-03-30T03:05:29;11.20;99.90
52513;DHT22;38422;53.172;6.974;2023-03-30T03:07:57;11.30;99.90
52513;DHT22;38422;53.172;6.974;2023-03-30T03:10:22;11.30;99.90
52513;DHT22;38422;53.172;6.974;2023-03-30T03:12:48;11.30;99.90
52513;DHT22;38422;53.172;6.974;2023-03-30T03:15:14;11.30;99.90
52513;DHT22;38422;53.172;6.974;2023-03-30T03:17:40;11.30;99.90
52513;DHT22;38422;53.172;6.974;2023-03-30T03:20:10;11.30;99.90
52513;DHT22;38422;53.172;6.974;2023-03-30T03:22:35;11.30;99.90
52513;DHT22;38422;53.172;6.974;2023-03-30T03:25:02;11.30;99.90
52513;DHT22;38422;53.172;6.974;2023-03-30T03:27:29;11.30;99.90
52513;DHT22;38422;53.172;6.974;2023-03-30T03:29:55;11.30;99.90
52513;DHT22;38422;53.172;6.974;2023-03-30T03:32:22;11.30;99.90
52513;DHT22;38422;53.172;6.974;2023-03-30T03:34:47;11.30;99.90
52513;DHT22;38422;53.172;6.974;2023-03-30T03:37:13;11.40;99.90
52513;DHT22;38422;53.172;6.974;2023-03-30T03:39:39;11.40;99.90
52513;DHT22;38422;53.172;6.974;2023-03-30T03:42:05;11.40;99.90
52513;DHT22;38422;53.172;6.974;2023-03-30T03:44:31;11.40;99.90
52513;DHT22;38422;53.172;6.974;2023-03-30T03:46:57;11.40;99.90
52513;DHT22;38422;53.172;6.974;2023-03-30T03:49:23;11.40;99.90
52513;DHT22;38422;53.172;6.974;2023-03-30T03:51:49;11.30;99.90
52513;DHT22;38422;53.172;6.974;2023-03-30T03:54:15;11.30;99.90
52513;DHT22;38422;53.172;6.974;2023-03-30T03:56:41;11.30;99.90
52513;DHT22;38422;53.172;6.974;2023-03-30T03:59:06;11.30;99.90
52513;DHT22;38422;53.172;6.974;2023-03-30T04:01:32;11.20;99.90
52513;DHT22;38422;53.172;6.974;2023-03-30T04:03:58;11.30;99.90
52513;DHT22;38422;53.172;6.974;2023-03-30T04:06:24;11.20;99.90
52513;DHT22;38422;53.172;6.974;2023-03-30T04:08:49;11.20;99.90
52513;DHT22;38422;53.172;6.974;2023-03-30T04:11:15;11.20;99.90
52513;DHT22;38422;53.172;6.974;2023-03-30T04:13:42;11.20;99.90
52513;DHT22;38422;53.172;6.974;2023-03-30T04:16:08;11.20;99.90
52513;DHT22;38422;53.172;6.974;2023-03-30T04:18:34;11.30;99.90
52513;DHT22;38422;53.172;6.974;2023-03-30T04:21:02;11.30;99.90
52513;DHT22;38422;53.172;6.974;2023-03-30T04:23:30;11.30;99.90
52513;DHT22;38422;53.172;6.974;2023-03-30T04:26:07;11.30;99.90
52513;DHT22;38422;53.172;6.974;2023-03-30T04:28:34;11.30;99.90
52513;DHT22;38422;53.172;6.974;2023-03-30T04:31:05;11.30;99.90
52513;DHT22;38422;53.172;6.974;2023-03-30T04:33:35;11.30;99.90
52513;DHT22;38422;53.172;6.974;2023-03-30T04:36:03;11.30;99.90
52513;DHT22;38422;53.172;6.974;2023-03-30T04:38:30;11.30;99.90
52513;DHT22;38422;53.172;6.974;2023-03-30T04:40:55;11.30;99.90
52513;DHT22;38422;53.172;6.974;2023-03-30T04:43:22;11.30;99.90
52513;DHT22;38422;53.172;6.974;2023-03-30T04:45:49;11.30;99.90
52513;DHT22;38422;53.172;6.974;2023-03-30T04:48:15;11.20;99.90
52513;DHT22;38422;53.172;6.974;2023-03-30T04:50:41;11.20;99.90
52513;DHT22;38422;53.172;6.974;2023-03-30T04:53:09;11.20;99.90
52513;DHT22;38422;53.172;6.974;2023-03-30T04:55:35;11.20;99.90
52513;DHT22;38422;53.172;6.974;2023-03-30T04:58:01;11.20;99.90
52513;DHT22;38422;53.172;6.974;2023-03-30T05:00:27;11.20;99.90
52513;DHT22;38422;53.172;6.974;2023-03-30T05:02:53;11.20;99.90
52513;DHT22;38422;53.172;6.974;2023-03-30T05:05:19;11.30;99.90
52513;DHT22;38422;53.172;6.974;2023-03-30T05:07:45;11.20;99.90
52513;DHT22;38422;53.172;6.974;2023-03-30T05:10:11;11.20;99.90
52513;DHT22;38422;53.172;6.974;2023-03-30T05:12:37;11.20;99.90
52513;DHT22;38422;53.172;6.974;2023-03-30T05:15:03;11.30;99.90
52513;DHT22;38422;53.172;6.974;2023-03-30T05:17:33;11.30;99.90
52513;DHT22;38422;53.172;6.974;2023-03-30T05:19:59;11.30;99.90
52513;DHT22;38422;53.172;6.974;2023-03-30T05:22:25;11.40;99.90
52513;DHT22;38422;53.172;6.974;2023-03-30T05:24:51;11.40;99.90
52513;DHT22;38422;53.172;6.974;2023-03-30T05:27:17;11.40;99.90
52513;DHT22;38422;53.172;6.974;2023-03-30T05:29:43;11.40;99.90
52513;DHT22;38422;53.172;6.974;2023-03-30T05:32:09;11.50;99.90
52513;DHT22;38422;53.172;6.974;2023-03-30T05:34:35;11.60;99.90
52513;DHT22;38422;53.172;6.974;2023-03-30T05:37:01;11.60;99.90
52513;DHT22;38422;53.172;6.974;2023-03-30T05:39:26;11.60;99.90
52513;DHT22;38422;53.172;6.974;2023-03-30T05:41:52;11.60;99.90
52513;DHT22;38422;53.172;6.974;2023-03-30T05:44:18;11.70;99.90
52513;DHT22;38422;53.172;6.974;2023-03-30T05:46:45;11.70;99.90
52513;DHT22;38422;53.172;6.974;2023-03-30T05:49:11;11.80;99.90
52513;DHT22;38422;53.172;6.974;2023-03-30T05:51:36;11.80;99.90
52513;DHT22;38422;53.172;6.974;2023-03-30T05:54:02;11.80;99.90
52513;DHT22;38422;53.172;6.974;2023-03-30T05:56:28;11.80;99.90
52513;DHT22;38422;53.172;6.974;2023-03-30T05:58:54;11.80;99.90
52513;DHT22;38422;53.172;6.974;2023-03-30T06:01:20;11.80;99.90
52513;DHT22;38422;53.172;6.974;2023-03-30T06:03:46;11.80;99.90
52513;DHT22;38422;53.172;6.974;2023-03-30T06:06:12;11.80;99.90
52513;DHT22;38422;53.172;6.974;2023-03-30T06:08:38;11.70;99.90
52513;DHT22;38422;53.172;6.974;2023-03-30T06:11:05;11.80;99.90
52513;DHT22;38422;53.172;6.974;2023-03-30T06:13:31;11.70;99.90
52513;DHT22;38422;53.172;6.974;2023-03-30T06:15:57;11.70;99.90
52513;DHT22;38422;53.172;6.974;2023-03-30T06:18:23;11.80;99.90
52513;DHT22;38422;53.172;6.974;2023-03-30T06:20:49;11.70;99.90
52513;DHT22;38422;53.172;6.974;2023-03-30T06:23:16;11.70;99.90
52513;DHT22;38422;53.172;6.974;2023-03-30T06:25:46;11.70;99.90
52513;DHT22;38422;53.172;6.974;2023-03-30T06:28:17;11.70;99.90
52513;DHT22;38422;53.172;6.974;2023-03-30T06:30:43;11.70;99.90
52513;DHT22;38422;53.172;6.974;2023-03-30T06:33:10;11.70;99.90
52513;DHT22;38422;53.172;6.974;2023-03-30T06:35:36;11.70;99.90
52513;DHT22;38422;53.172;6.974;2023-03-30T06:38:01;11.70;99.90
52513;DHT22;38422;53.172;6.974;2023-03-30T06:40:27;11.80;99.90
52513;DHT22;38422;53.172;6.974;2023-03-30T06:42:53;11.80;99.90
52513;DHT22;38422;53.172;6.974;2023-03-30T06:45:19;11.90;99.90
52513;DHT22;38422;53.172;6.974;2023-03-30T06:47:44;11.90;99.90
52513;DHT22;38422;53.172;6.974;2023-03-30T06:50:10;11.90;99.90
52513;DHT22;38422;53.172;6.974;2023-03-30T06:52:37;12.00;99.90
52513;DHT22;38422;53.172;6.974;2023-03-30T06:55:04;12.00;99.90
52513;DHT22;38422;53.172;6.974;2023-03-30T06:57:30;12.00;99.90
52513;DHT22;38422;53.172;6.974;2023-03-30T06:59:56;12.10;99.90
52513;DHT22;38422;53.172;6.974;2023-03-30T07:02:22;12.10;99.90
52513;DHT22;38422;53.172;6.974;2023-03-30T07:04:49;12.10;99.90
52513;DHT22;38422;53.172;6.974;2023-03-30T07:07:16;12.10;99.90
52513;DHT22;38422;53.172;6.974;2023-03-30T07:09:42;12.10;99.90
52513;DHT22;38422;53.172;6.974;2023-03-30T07:12:08;12.20;99.90
52513;DHT22;38422;53.172;6.974;2023-03-30T07:14:34;12.20;99.90
52513;DHT22;38422;53.172;6.974;2023-03-30T07:16:59;12.30;99.90
52513;DHT22;38422;53.172;6.974;2023-03-30T07:19:25;12.30;99.90
52513;DHT22;38422;53.172;6.974;2023-03-30T07:21:51;12.40;99.90
52513;DHT22;38422;53.172;6.974;2023-03-30T07:24:16;12.40;99.90
52513;DHT22;38422;53.172;6.974;2023-03-30T07:26:42;12.40;99.90
52513;DHT22;38422;53.172;6.974;2023-03-30T07:29:08;12.40;99.90
52513;DHT22;38422;53.172;6.974;2023-03-30T07:31:33;12.50;99.90
52513;DHT22;38422;53.172;6.974;2023-03-30T07:34:00;12.50;99.90
52513;DHT22;38422;53.172;6.974;2023-03-30T07:36:27;12.60;99.90
52513;DHT22;38422;53.172;6.974;2023-03-30T07:38:52;12.60;99.90
52513;DHT22;38422;53.172;6.974;2023-03-30T07:41:18;12.50;99.90
52513;DHT22;38422;53.172;6.974;2023-03-30T07:43:44;12.50;99.90
52513;DHT22;38422;53.172;6.974;2023-03-30T07:46:10;12.50;99.90
52513;DHT22;38422;53.172;6.974;2023-03-30T07:48:39;12.40;99.90
52513;DHT22;38422;53.172;6.974;2023-03-30T07:51:08;12.40;99.90
52513;DHT22;38422;53.172;6.974;2023-03-30T07:53:35;12.30;99.90
52513;DHT22;38422;53.172;6.974;2023-03-30T07:56:01;12.30;99.90
52513;DHT22;38422;53.172;6.974;2023-03-30T07:58:27;12.20;99.90
52513;DHT22;38422;53.172;6.974;2023-03-30T08:00:54;12.20;99.90
52513;DHT22;38422;53.172;6.974;2023-03-30T08:03:20;12.10;99.90
52513;DHT22;38422;53.172;6.974;2023-03-30T08:05:54;12.00;99.90
52513;DHT22;38422;53.172;6.974;2023-03-30T08:08:20;12.00;99.90
52513;DHT22;38422;53.172;6.974;2023-03-30T08:10:46;11.90;99.90
52513;DHT22;38422;53.172;6.974;2023-03-30T08:13:11;11.90;99.90
52513;DHT22;38422;53.172;6.974;2023-03-30T08:15:37;11.90;99.90
52513;DHT22;38422;53.172;6.974;2023-03-30T08:18:03;11.90;99.90
52513;DHT22;38422;53.172;6.974;2023-03-30T08:20:36;11.90;99.90
52513;DHT22;38422;53.172;6.974;2023-03-30T08:23:03;11.90;99.90
52513;DHT22;38422;53.172;6.974;2023-03-30T08:25:29;11.90;99.90
52513;DHT22;38422;53.172;6.974;2023-03-30T08:27:55;11.90;99.90
52513;DHT22;38422;53.172;6.974;2023-03-30T08:30:21;11.90;99.90
52513;DHT22;38422;53.172;6.974;2023-03-30T08:32:47;11.90;99.90
52513;DHT22;38422;53.172;6.974;2023-03-30T08:35:13;11.90;99.90
52513;DHT22;38422;53.172;6.974;2023-03-30T08:37:39;11.90;99.90
52513;DHT22;38422;53.172;6.974;2023-03-30T08:40:06;11.80;99.90
52513;DHT22;38422;53.172;6.974;2023-03-30T08:45:36;11.80;99.90
52513;DHT22;38422;53.172;6.974;2023-03-30T08:48:06;11.70;99.90
52513;DHT22;38422;53.172;6.974;2023-03-30T08:50:36;11.70;99.90
52513;DHT22;38422;53.172;6.974;2023-03-30T08:53:06;11.60;99.90
52513;DHT22;38422;53.172;6.974;2023-03-30T08:59:02;11.50;99.90
52513;DHT22;38422;53.172;6.974;2023-03-30T09:01:48;11.60;99.90
52513;DHT22;38422;53.172;6.974;2023-03-30T09:07:00;11.60;99.90
52513;DHT22;38422;53.172;6.974;2023-03-30T09:09:30;11.70;99.90
52513;DHT22;38422;53.172;6.974;2023-03-30T09:14:52;11.80;99.90
52513;DHT22;38422;53.172;6.974;2023-03-30T09:17:26;11.90;99.90
52513;DHT22;38422;53.172;6.974;2023-03-30T09:19:55;11.90;99.90
52513;DHT22;38422;53.172;6.974;2023-03-30T09:22:28;11.90;99.90
52513;DHT22;38422;53.172;6.974;2023-03-30T09:24:56;12.00;99.90
52513;DHT22;38422;53.172;6.974;2023-03-30T09:27:48;12.10;99.90
52513;DHT22;38422;53.172;6.974;2023-03-30T09:30:20;12.30;99.90
52513;DHT22;38422;53.172;6.974;2023-03-30T09:32:58;12.50;99.90
52513;DHT22;38422;53.172;6.974;2023-03-30T09:35:32;12.70;99.90
52513;DHT22;38422;53.172;6.974;2023-03-30T09:37:59;12.80;99.90
52513;DHT22;38422;53.172;6.974;2023-03-30T09:40:51;12.90;99.90
52513;DHT22;38422;53.172;6.974;2023-03-30T09:43:39;12.90;99.90
52513;DHT22;38422;53.172;6.974;2023-03-30T09:46:14;12.90;99.90
52513;DHT22;38422;53.172;6.974;2023-03-30T09:48:47;13.00;99.90
52513;DHT22;38422;53.172;6.974;2023-03-30T09:51:23;13.00;99.90
52513;DHT22;38422;53.172;6.974;2023-03-30T09:53:52;13.10;99.90
52513;DHT22;38422;53.172;6.974;2023-03-30T09:59:18;13.30;99.90
52513;DHT22;38422;53.172;6.974;2023-03-30T10:01:45;13.60;99.90
52513;DHT22;38422;53.172;6.974;2023-03-30T10:04:11;13.60;99.90
52513;DHT22;38422;53.172;6.974;2023-03-30T10:06:47;13.60;99.90
52513;DHT22;38422;53.172;6.974;2023-03-30T10:09:17;13.70;99.90
52513;DHT22;38422;53.172;6.974;2023-03-30T10:11:48;13.70;99.90
52513;DHT22;38422;53.172;6.974;2023-03-30T10:14:33;13.70;99.90
52513;DHT22;38422;53.172;6.974;2023-03-30T10:17:01;13.80;99.90
52513;DHT22;38422;53.172;6.974;2023-03-30T10:19:28;13.90;99.90
52513;DHT22;38422;53.172;6.974;2023-03-30T10:21:58;13.80;99.90
52513;DHT22;38422;53.172;6.974;2023-03-30T10:24:30;13.70;99.90
52513;DHT22;38422;53.172;6.974;2023-03-30T10:26:58;13.60;99.90
52513;DHT22;38422;53.172;6.974;2023-03-30T10:29:28;13.40;99.90
52513;DHT22;38422;53.172;6.974;2023-03-30T10:32:20;13.30;99.90
52513;DHT22;38422;53.172;6.974;2023-03-30T10:38:30;13.30;99.90
52513;DHT22;38422;53.172;6.974;2023-03-30T10:41:10;13.30;99.90
52513;DHT22;38422;53.172;6.974;2023-03-30T10:43:37;13.20;99.90
52513;DHT22;38422;53.172;6.974;2023-03-30T10:46:30;13.20;99.90
52513;DHT22;38422;53.172;6.974;2023-03-30T10:48:59;13.20;99.90
52513;DHT22;38422;53.172;6.974;2023-03-30T10:51:34;13.20;99.90
52513;DHT22;38422;53.172;6.974;2023-03-30T10:56:44;13.10;99.90
52513;DHT22;38422;53.172;6.974;2023-03-30T11:02:26;13.10;99.90
52513;DHT22;38422;53.172;6.974;2023-03-30T11:05:13;13.00;99.90
52513;DHT22;38422;53.172;6.974;2023-03-30T11:07:40;13.00;99.90
52513;DHT22;38422;53.172;6.974;2023-03-30T11:10:13;13.00;99.90
52513;DHT22;38422;53.172;6.974;2023-03-30T11:12:43;13.00;99.90
52513;DHT22;38422;53.172;6.974;2023-03-30T11:15:49;13.00;99.90
52513;DHT22;38422;53.172;6.974;2023-03-30T11:21:00;13.00;99.90
52513;DHT22;38422;53.172;6.974;2023-03-30T11:26:09;13.00;99.90
52513;DHT22;38422;53.172;6.974;2023-03-30T11:39:30;13.00;99.90
52513;DHT22;38422;53.172;6.974;2023-03-30T11:42:03;13.10;99.90
52513;DHT22;38422;53.172;6.974;2023-03-30T11:44:31;13.10;99.90
52513;DHT22;38422;53.172;6.974;2023-03-30T11:47:07;13.10;99.90
52513;DHT22;38422;53.172;6.974;2023-03-30T11:58:00;13.50;99.90
52513;DHT22;38422;53.172;6.974;2023-03-30T12:03:40;13.80;99.90
52513;DHT22;38422;53.172;6.974;2023-03-30T12:06:31;14.20;99.90
52513;DHT22;38422;53.172;6.974;2023-03-30T12:09:35;14.60;99.90
52513;DHT22;38422;53.172;6.974;2023-03-30T12:12:10;14.80;99.90
52513;DHT22;38422;53.172;6.974;2023-03-30T12:14:56;14.90;99.90
52513;DHT22;38422;53.172;6.974;2023-03-30T12:17:59;15.00;99.90
52513;DHT22;38422;53.172;6.974;2023-03-30T12:20:48;15.20;99.90
52513;DHT22;38422;53.172;6.974;2023-03-30T12:34:26;14.70;99.90
52513;DHT22;38422;53.172;6.974;2023-03-30T12:36:55;14.70;99.90
52513;DHT22;38422;53.172;6.974;2023-03-30T12:39:44;14.80;99.90
52513;DHT22;38422;53.172;6.974;2023-03-30T12:42:23;15.00;99.90
52513;DHT22;38422;53.172;6.974;2023-03-30T12:45:15;15.00;99.90
52513;DHT22;38422;53.172;6.974;2023-03-30T12:47:48;14.80;99.90
52513;DHT22;38422;53.172;6.974;2023-03-30T12:50:32;14.70;99.90
52513;DHT22;38422;53.172;6.974;2023-03-30T13:01:26;14.80;99.90
52513;DHT22;38422;53.172;6.974;2023-03-30T13:04:00;15.00;99.90
52513;DHT22;38422;53.172;6.974;2023-03-30T13:06:32;15.40;99.90
52513;DHT22;38422;53.172;6.974;2023-03-30T13:11:44;16.00;99.90
52513;DHT22;38422;53.172;6.974;2023-03-30T13:17:11;15.70;99.90
52513;DHT22;38422;53.172;6.974;2023-03-30T13:19:42;15.60;99.90
52513;DHT22;38422;53.172;6.974;2023-03-30T13:30:12;15.40;99.90
52513;DHT22;38422;53.172;6.974;2023-03-30T13:46:41;14.90;99.90
52513;DHT22;38422;53.172;6.974;2023-03-30T13:51:39;14.70;99.90
52513;DHT22;38422;53.172;6.974;2023-03-30T13:54:19;14.60;99.90
52513;DHT22;38422;53.172;6.974;2023-03-30T13:57:05;14.60;99.90
52513;DHT22;38422;53.172;6.974;2023-03-30T13:59:34;14.60;99.90
52513;DHT22;38422;53.172;6.974;2023-03-30T14:02:01;14.60;99.90
52513;DHT22;38422;53.172;6.974;2023-03-30T14:04:32;14.70;99.90
52513;DHT22;38422;53.172;6.974;2023-03-30T14:07:04;14.70;99.90
52513;DHT22;38422;53.172;6.974;2023-03-30T14:09:30;14.80;99.90
52513;DHT22;38422;53.172;6.974;2023-03-30T14:12:00;14.80;99.90
52513;DHT22;38422;53.172;6.974;2023-03-30T14:16:59;14.70;99.90
52513;DHT22;38422;53.172;6.974;2023-03-30T14:19:37;14.60;99.90
52513;DHT22;38422;53.172;6.974;2023-03-30T14:22:16;14.60;99.90
52513;DHT22;38422;53.172;6.974;2023-03-30T14:24:57;14.90;99.90
52513;DHT22;38422;53.172;6.974;2023-03-30T14:27:23;15.00;99.90
52513;DHT22;38422;53.172;6.974;2023-03-30T14:29:50;14.80;99.90
52513;DHT22;38422;53.172;6.974;2023-03-30T14:32:17;14.80;99.90
52513;DHT22;38422;53.172;6.974;2023-03-30T14:34:50;14.60;99.90
52513;DHT22;38422;53.172;6.974;2023-03-30T14:37:16;14.60;99.90
52513;DHT22;38422;53.172;6.974;2023-03-30T14:39:54;14.50;99.90
52513;DHT22;38422;53.172;6.974;2023-03-30T14:42:24;14.40;99.90
52513;DHT22;38422;53.172;6.974;2023-03-30T14:44:53;14.50;99.90
52513;DHT22;38422;53.172;6.974;2023-03-30T14:47:21;14.60;99.90
52513;DHT22;38422;53.172;6.974;2023-03-30T14:49:50;14.50;99.90
52513;DHT22;38422;53.172;6.974;2023-03-30T14:52:20;14.50;99.90
52513;DHT22;38422;53.172;6.974;2023-03-30T14:54:48;14.70;99.90
52513;DHT22;38422;53.172;6.974;2023-03-30T14:57:19;14.80;99.90
52513;DHT22;38422;53.172;6.974;2023-03-30T14:59:50;14.80;99.90
52513;DHT22;38422;53.172;6.974;2023-03-30T15:02:26;14.90;99.90
52513;DHT22;38422;53.172;6.974;2023-03-30T15:04:53;15.10;99.90
52513;DHT22;38422;53.172;6.974;2023-03-30T15:07:21;15.30;99.90
52513;DHT22;38422;53.172;6.974;2023-03-30T15:09:53;15.30;99.90
52513;DHT22;38422;53.172;6.974;2023-03-30T15:12:24;15.20;99.90
52513;DHT22;38422;53.172;6.974;2023-03-30T15:14:55;15.10;99.90
52513;DHT22;38422;53.172;6.974;2023-03-30T15:17:24;15.10;99.90
52513;DHT22;38422;53.172;6.974;2023-03-30T15:19:51;15.10;99.90
52513;DHT22;38422;53.172;6.974;2023-03-30T15:22:54;15.00;99.90
52513;DHT22;38422;53.172;6.974;2023-03-30T15:25:26;15.00;99.90
52513;DHT22;38422;53.172;6.974;2023-03-30T15:28:17;14.90;99.90
52513;DHT22;38422;53.172;6.974;2023-03-30T15:30:50;14.90;99.90
52513;DHT22;38422;53.172;6.974;2023-03-30T15:33:47;14.90;99.90
52513;DHT22;38422;53.172;6.974;2023-03-30T15:36:37;14.90;99.90
52513;DHT22;38422;53.172;6.974;2023-03-30T15:39:26;14.80;99.90
52513;DHT22;38422;53.172;6.974;2023-03-30T15:42:03;14.70;99.90
52513;DHT22;38422;53.172;6.974;2023-03-30T15:44:38;14.50;99.90
52513;DHT22;38422;53.172;6.974;2023-03-30T15:47:18;14.40;99.90
52513;DHT22;38422;53.172;6.974;2023-03-30T15:49:48;14.20;99.90
52513;DHT22;38422;53.172;6.974;2023-03-30T15:52:36;14.20;99.90
52513;DHT22;38422;53.172;6.974;2023-03-30T15:55:20;14.00;99.90
52513;DHT22;38422;53.172;6.974;2023-03-30T15:57:51;13.90;99.90
52513;DHT22;38422;53.172;6.974;2023-03-30T16:00:28;13.80;99.90
52513;DHT22;38422;53.172;6.974;2023-03-30T16:02:57;13.80;99.90
52513;DHT22;38422;53.172;6.974;2023-03-30T16:05:28;13.80;99.90
52513;DHT22;38422;53.172;6.974;2023-03-30T16:07:55;13.90;99.90
52513;DHT22;38422;53.172;6.974;2023-03-30T16:10:36;14.00;99.90
52513;DHT22;38422;53.172;6.974;2023-03-30T16:13:02;14.00;99.90
52513;DHT22;38422;53.172;6.974;2023-03-30T16:15:38;13.90;99.90
52513;DHT22;38422;53.172;6.974;2023-03-30T16:18:06;13.90;99.90
52513;DHT22;38422;53.172;6.974;2023-03-30T16:20:31;13.90;99.90
52513;DHT22;38422;53.172;6.974;2023-03-30T16:22:59;13.90;99.90
52513;DHT22;38422;53.172;6.974;2023-03-30T16:25:26;14.00;99.90
52513;DHT22;38422;53.172;6.974;2023-03-30T16:27:52;14.00;99.90
52513;DHT22;38422;53.172;6.974;2023-03-30T16:30:22;14.00;99.90
52513;DHT22;38422;53.172;6.974;2023-03-30T16:32:50;14.00;99.90
52513;DHT22;38422;53.172;6.974;2023-03-30T16:35:16;14.00;99.90
52513;DHT22;38422;53.172;6.974;2023-03-30T16:37:41;13.90;99.90
52513;DHT22;38422;53.172;6.974;2023-03-30T16:40:21;13.80;99.90
52513;DHT22;38422;53.172;6.974;2023-03-30T16:42:50;13.80;99.90
52513;DHT22;38422;53.172;6.974;2023-03-30T16:45:15;13.70;99.90
52513;DHT22;38422;53.172;6.974;2023-03-30T16:47:42;13.70;99.90
52513;DHT22;38422;53.172;6.974;2023-03-30T16:50:35;13.60;99.90
52513;DHT22;38422;53.172;6.974;2023-03-30T16:53:01;13.50;99.90
52513;DHT22;38422;53.172;6.974;2023-03-30T16:55:27;13.50;99.90
52513;DHT22;38422;53.172;6.974;2023-03-30T16:57:53;13.40;99.90
52513;DHT22;38422;53.172;6.974;2023-03-30T17:00:31;13.40;99.90
52513;DHT22;38422;53.172;6.974;2023-03-30T17:02:57;13.30;99.90
52513;DHT22;38422;53.172;6.974;2023-03-30T17:05:23;13.30;99.90
52513;DHT22;38422;53.172;6.974;2023-03-30T17:07:53;13.30;99.90
52513;DHT22;38422;53.172;6.974;2023-03-30T17:10:26;13.30;99.90
52513;DHT22;38422;53.172;6.974;2023-03-30T17:12:53;13.30;99.90
52513;DHT22;38422;53.172;6.974;2023-03-30T17:15:20;13.20;99.90
52513;DHT22;38422;53.172;6.974;2023-03-30T17:17:46;13.20;99.90
52513;DHT22;38422;53.172;6.974;2023-03-30T17:20:29;13.20;99.90
52513;DHT22;38422;53.172;6.974;2023-03-30T17:22:56;13.20;99.90
52513;DHT22;38422;53.172;6.974;2023-03-30T17:25:23;13.10;99.90
52513;DHT22;38422;53.172;6.974;2023-03-30T17:27:52;13.10;99.90
52513;DHT22;38422;53.172;6.974;2023-03-30T17:30:21;13.10;99.90
52513;DHT22;38422;53.172;6.974;2023-03-30T17:32:47;13.00;99.90
52513;DHT22;38422;53.172;6.974;2023-03-30T17:35:15;13.00;99.90
52513;DHT22;38422;53.172;6.974;2023-03-30T17:37:41;13.00;99.90
52513;DHT22;38422;53.172;6.974;2023-03-30T17:40:18;13.00;99.90
52513;DHT22;38422;53.172;6.974;2023-03-30T17:42:44;12.90;99.90
52513;DHT22;38422;53.172;6.974;2023-03-30T17:45:12;13.00;99.90
52513;DHT22;38422;53.172;6.974;2023-03-30T17:47:39;12.90;99.90
52513;DHT22;38422;53.172;6.974;2023-03-30T17:50:35;12.80;99.90
52513;DHT22;38422;53.172;6.974;2023-03-30T17:53:03;12.80;99.90
52513;DHT22;38422;53.172;6.974;2023-03-30T17:55:31;12.70;99.90
52513;DHT22;38422;53.172;6.974;2023-03-30T17:57:58;12.70;99.90
52513;DHT22;38422;53.172;6.974;2023-03-30T18:00:26;12.70;99.90
52513;DHT22;38422;53.172;6.974;2023-03-30T18:02:53;12.60;99.90
52513;DHT22;38422;53.172;6.974;2023-03-30T18:05:20;12.50;99.90
52513;DHT22;38422;53.172;6.974;2023-03-30T18:07:46;12.50;99.90
52513;DHT22;38422;53.172;6.974;2023-03-30T18:10:21;12.40;99.90
52513;DHT22;38422;53.172;6.974;2023-03-30T18:12:49;12.40;99.90